Time,TemperatureF,DewpointF,PressureIn,WindDirection,WindDirectionDegrees,WindSpeedMPH,WindSpeedGustMPH,Humidity,HourlyPrecipIn,Conditions,Clouds,dailyrainin,SoftwareType,DateUTC
2013-02-14 00:00:00,60.4,56.2,29.96,North,0,0.0,0.0,86,0.01,,---,0.01,VWS V13.01,2013-02-14 05:00:00,
2013-02-14 00:30:00,59.8,55.6,29.94,North,0,0.0,0.0,86,0.03,,---,0.03,VWS V13.01,2013-02-14 05:30:00,
2013-02-14 01:00:00,60.0,55.8,29.94,North,0,0.0,0.0,86,0.03,,---,0.03,VWS V13.01,2013-02-14 06:00:00,
2013-02-14 01:30:00,60.1,55.9,29.94,North,0,0.0,0.0,86,0.02,,---,0.03,VWS V13.01,2013-02-14 06:30:00,
2013-02-14 02:00:00,60.3,56.1,29.92,North,0,0.0,0.0,86,0.00,,---,0.03,VWS V13.01,2013-02-14 07:00:00,
2013-02-14 02:30:00,60.2,56.0,29.91,North,0,0.0,0.0,86,0.00,,---,0.03,VWS V13.01,2013-02-14 07:30:00,
2013-02-14 03:00:00,60.4,56.2,29.91,North,0,0.0,0.0,86,0.00,,---,0.03,VWS V13.01,2013-02-14 08:00:00,
2013-02-14 03:30:00,60.5,56.3,29.91,North,0,0.0,0.0,86,0.00,,---,0.03,VWS V13.01,2013-02-14 08:30:00,
2013-02-14 04:00:00,60.7,56.5,29.91,North,0,0.0,0.0,86,0.00,,---,0.03,VWS V13.01,2013-02-14 09:00:00,
2013-02-14 04:30:00,61.0,56.8,29.91,North,0,0.0,0.0,86,0.00,,---,0.03,VWS V13.01,2013-02-14 09:30:00,
2013-02-14 05:00:00,61.0,56.8,29.90,North,0,0.0,0.0,86,0.00,,---,0.03,VWS V13.01,2013-02-14 10:00:00,
2013-02-14 05:30:00,61.0,56.8,29.90,North,0,0.0,0.0,86,0.00,,---,0.03,VWS V13.01,2013-02-14 10:30:00,
2013-02-14 06:00:00,60.8,56.3,29.91,North,0,0.0,0.0,85,0.01,,---,0.04,VWS V13.01,2013-02-14 11:00:00,
2013-02-14 06:30:00,61.1,56.6,29.93,North,0,0.0,0.0,85,0.01,,---,0.04,VWS V13.01,2013-02-14 11:30:00,
2013-02-14 07:00:00,60.5,56.0,29.93,North,0,0.0,0.0,85,0.01,,---,0.04,VWS V13.01,2013-02-14 12:00:00,
2013-02-14 07:30:00,60.1,55.6,29.95,North,0,0.0,0.0,85,0.00,,---,0.04,VWS V13.01,2013-02-14 12:30:00,
2013-02-14 08:00:00,60.9,56.4,29.96,North,0,0.0,0.0,85,0.00,,---,0.04,VWS V13.01,2013-02-14 13:00:00,
2013-02-14 08:30:00,62.1,57.5,29.96,North,0,0.0,0.0,85,0.00,,---,0.04,VWS V13.01,2013-02-14 13:30:00,
2013-02-14 09:00:00,62.5,57.9,29.98,North,0,0.0,0.0,85,0.00,,---,0.04,VWS V13.01,2013-02-14 14:00:00,
2013-02-14 09:30:00,62.6,58.0,29.99,North,0,0.0,0.0,85,0.00,,---,0.04,VWS V13.01,2013-02-14 14:30:00,
2013-02-14 10:00:00,62.8,58.2,30.01,North,0,0.0,0.0,85,0.00,,---,0.04,VWS V13.01,2013-02-14 15:00:00,
2013-02-14 10:30:00,62.2,57.6,30.02,North,0,0.0,9.0,85,0.00,,---,0.04,VWS V13.01,2013-02-14 15:30:00,
2013-02-14 11:00:00,61.3,56.8,30.01,NNW,338,0.0,10.0,85,0.02,,---,0.06,VWS V13.01,2013-02-14 16:00:00,
2013-02-14 11:30:00,61.0,56.5,30.02,North,0,0.0,9.0,85,0.08,,---,0.12,VWS V13.01,2013-02-14 16:30:00,
2013-02-14 12:00:00,60.5,56.0,30.01,North,0,0.0,5.0,85,0.16,,---,0.20,VWS V13.01,2013-02-14 17:00:00,
2013-02-14 12:30:00,60.2,55.7,30.01,NNE,22,0.0,7.0,85,0.17,,---,0.23,VWS V13.01,2013-02-14 17:30:00,
2013-02-14 13:00:00,61.1,56.6,29.97,ESE,112,0.0,1.0,85,0.13,,---,0.25,VWS V13.01,2013-02-14 18:00:00,
2013-02-14 13:30:00,61.3,56.8,29.95,ESE,112,0.0,0.0,85,0.05,,---,0.25,VWS V13.01,2013-02-14 18:30:00,
2013-02-14 14:00:00,61.5,57.0,29.93,ESE,112,0.0,0.0,85,0.03,,---,0.26,VWS V13.01,2013-02-14 19:00:00,
2013-02-14 14:30:00,61.4,56.9,29.94,ESE,112,0.0,0.0,85,0.03,,---,0.28,VWS V13.01,2013-02-14 19:30:00,
2013-02-14 15:00:00,61.6,57.0,29.95,ESE,112,0.0,0.0,85,0.03,,---,0.28,VWS V13.01,2013-02-14 20:00:00,
2013-02-14 15:30:00,61.3,56.8,29.93,ESE,112,0.0,0.0,85,0.02,,---,0.28,VWS V13.01,2013-02-14 20:30:00,
2013-02-14 16:00:00,61.4,56.9,29.94,ESE,112,0.0,0.0,85,0.01,,---,0.29,VWS V13.01,2013-02-14 21:00:00,
2013-02-14 16:30:00,61.2,56.7,29.95,ESE,112,0.0,0.0,85,0.02,,---,0.30,VWS V13.01,2013-02-14 21:30:00,
2013-02-14 17:00:00,60.9,56.4,29.94,ESE,112,0.0,0.0,85,0.03,,---,0.31,VWS V13.01,2013-02-14 22:00:00,
2013-02-14 17:30:00,60.3,55.8,29.96,ESE,112,0.0,0.0,85,0.03,,---,0.32,VWS V13.01,2013-02-14 22:30:00,
2013-02-14 18:00:00,60.2,55.7,29.97,ESE,112,0.0,0.0,85,0.02,,---,0.32,VWS V13.01,2013-02-14 23:00:00,
2013-02-14 18:30:00,59.3,54.8,29.98,NNW,338,0.0,6.0,85,0.01,,---,0.32,VWS V13.01,2013-02-14 23:30:00,
2013-02-14 19:00:00,59.0,54.5,29.98,North,0,0.0,5.0,85,0.00,,---,0.32,VWS V13.01,2013-02-15 00:00:00,
2013-02-14 19:30:00,58.8,54.3,29.97,NE,45,0.0,6.0,85,0.00,,---,0.32,VWS V13.01,2013-02-15 00:30:00,
2013-02-14 20:00:00,59.1,54.6,29.98,NE,45,0.0,0.0,85,0.00,,---,0.32,VWS V13.01,2013-02-15 01:00:00,
2013-02-14 20:30:00,59.0,54.5,29.98,NE,45,0.0,0.0,85,0.00,,---,0.32,VWS V13.01,2013-02-15 01:30:00,
2013-02-14 21:00:00,59.0,54.5,29.97,NE,45,0.0,0.0,85,0.01,,---,0.33,VWS V13.01,2013-02-15 02:00:00,
2013-02-14 21:30:00,59.2,54.7,29.98,NE,45,0.0,0.0,85,0.02,,---,0.34,VWS V13.01,2013-02-15 02:30:00,
2013-02-14 22:00:00,59.2,54.7,30.01,North,0,0.0,2.0,85,0.02,,---,0.34,VWS V13.01,2013-02-15 03:00:00,
2013-02-14 22:30:00,59.2,54.7,29.99,North,0,0.0,0.0,85,0.03,,---,0.36,VWS V13.01,2013-02-15 03:30:00,
2013-02-14 23:00:00,59.1,54.3,29.97,North,0,0.0,0.0,84,0.03,,---,0.37,VWS V13.01,2013-02-15 04:00:00,
2013-02-14 23:30:00,59.5,55.0,29.98,North,0,0.0,0.0,85,0.03,,---,0.37,VWS V13.01,2013-02-15 04:30:00,